createdAt,value
2022-12-18T00:05:00.524Z,24.85
2022-12-18T00:20:02.710Z,25.10
2022-12-18T00:35:06.023Z,20.80
2022-12-18T00:50:09.024Z,23.00
2022-12-18T01:05:13.321Z,23.85
2022-12-18T01:20:16.035Z,22.45
2022-12-18T01:35:18.098Z,22.13
2022-12-18T01:50:29.841Z,22.13
2022-12-18T02:06:10.399Z,23.90
2022-12-18T02:21:33.642Z,21.88
2022-12-18T02:36:40.066Z,18.20
2022-12-18T02:52:05.683Z,19.87
2022-12-18T03:07:15.767Z,21.10
2022-12-18T03:22:18.753Z,18.92
2022-12-18T03:37:20.735Z,18.60
2022-12-18T03:52:29.351Z,21.98
2022-12-18T04:07:32.876Z,20.67
2022-12-18T04:22:34.765Z,19.90
2022-12-18T04:37:36.627Z,22.40
2022-12-18T04:52:38.657Z,18.92
2022-12-18T05:07:40.867Z,20.27
2022-12-18T05:22:43.456Z,21.20
2022-12-18T05:37:45.579Z,23.23
2022-12-18T05:52:47.496Z,23.85
2022-12-18T06:07:49.426Z,27.45
2022-12-18T06:22:51.362Z,28.67
2022-12-18T06:37:53.249Z,28.27
2022-12-18T06:52:55.186Z,27.33
2022-12-18T07:07:57.231Z,30.50
2022-12-18T07:22:59.146Z,33.38
2022-12-18T07:38:01.293Z,29.13
2022-12-18T07:53:04.710Z,23.75
2022-12-18T08:08:06.726Z,24.70
2022-12-18T08:23:08.601Z,25.20
2022-12-18T08:38:10.525Z,26.15
2022-12-18T08:53:12.396Z,25.27
2022-12-18T09:08:14.378Z,25.77
2022-12-18T09:23:16.277Z,26.38
2022-12-18T09:38:20.631Z,24.73
2022-12-18T09:53:27.503Z,26.95
2022-12-18T10:08:45.089Z,29.60
2022-12-18T10:23:53.284Z,29.17
2022-12-18T10:39:00.242Z,26.65
2022-12-18T10:54:22.386Z,29.73
2022-12-18T11:09:27.386Z,29.02
2022-12-18T11:24:35.415Z,27.13
2022-12-18T11:39:40.125Z,24.25
2022-12-18T11:54:42.045Z,24.90
2022-12-18T12:10:11.443Z,29.42
2022-12-18T12:25:13.319Z,29.08
2022-12-18T12:40:51.112Z,28.73
2022-12-18T12:55:51.216Z,31.08
2022-12-18T13:11:16.760Z,33.20
2022-12-18T13:26:23.213Z,35.03
2022-12-18T13:41:30.339Z,36.50
2022-12-18T13:56:35.265Z,33.38
2022-12-18T14:11:38.238Z,33.42
2022-12-18T14:26:43.040Z,33.53
2022-12-18T14:41:45.240Z,33.05
2022-12-18T14:56:57.366Z,35.35
2022-12-18T15:12:01.597Z,41.00
2022-12-18T15:27:04.787Z,39.65
2022-12-18T15:42:34.780Z,40.53
2022-12-18T15:57:37.360Z,40.45
2022-12-18T16:12:39.874Z,41.70
2022-12-18T16:27:41.847Z,45.95
2022-12-18T16:42:46.170Z,45.33
2022-12-18T16:57:48.368Z,41.95
2022-12-18T17:12:51.627Z,46.13
2022-12-18T17:27:53.644Z,48.58
2022-12-18T17:42:55.710Z,50.60
2022-12-18T17:57:57.813Z,45.88
2022-12-18T18:13:18.337Z,47.10
2022-12-18T18:28:20.490Z,51.72
2022-12-18T18:43:22.603Z,55.53
2022-12-18T18:58:24.511Z,51.00
2022-12-18T19:13:29.589Z,54.53
2022-12-18T19:28:31.913Z,51.65
2022-12-18T19:43:37.712Z,56.20
2022-12-18T19:58:40.392Z,54.15
2022-12-18T20:13:43.014Z,58.13
2022-12-18T20:28:45.439Z,59.88
2022-12-18T20:43:47.796Z,56.70
2022-12-18T20:58:50.516Z,53.97
2022-12-18T21:13:56.787Z,56.70
2022-12-18T21:29:01.630Z,56.05
2022-12-18T21:44:06.557Z,59.35
2022-12-18T21:59:08.782Z,58.17
2022-12-18T22:14:11.149Z,59.40
2022-12-18T22:29:49.361Z,61.65
2022-12-18T22:44:51.277Z,59.33
2022-12-18T22:59:53.258Z,59.63
2022-12-18T23:14:55.158Z,62.90
2022-12-18T23:29:57.085Z,68.88
2022-12-18T23:45:00.736Z,70.70
